KOVE/OVE METAR and TAF weather

Enter ICAO airport designator
Station Type Date Time Source
KOVE METAR 2019/04/25 01:53 UTC NOAA

KOVE 250153Z AUTO 12005KT 10SM CLR 30/14 A2985 RMK AO2 SLP110 T03000139


Station Type Date Time Source
KOVE Decoded METAR 2019/04/25 01:53 UTC NOAA

OROVILLE MUNICIPAL AIRPORT, CA, United States (KOVE) 39-30N 121-37W 58M
Apr 24, 2019 - 09:53 PM EDT / 2019.04.25 0153 UTC
Wind: from the ESE (120 degrees) at 6 MPH (5 KT):0
Visibility: 10 mile(s):0
Sky conditions: clear
Temperature: 86.0 F (30.0 C)
Dew Point: 57.0 F (13.9 C)
Relative Humidity: 37%
Pressure (altimeter): 29.85 in. Hg (1010 hPa)
ob: KOVE 250153Z AUTO 12005KT 10SM CLR 30/14 A2985 RMK AO2 SLP110 T03000139
cycle: 2

Station Type Date Time Source
KOVE TAF UTC NOAA

Error!

Example: see airport list